Time;durP1;ratioP1;P1;durP2;ratioP2;P2;SDS_P1;SDS_P2;PMS_P1;PMS_P2;Temp;Humidity;BMP_temperature;BMP_pressure;BME280_temperature;BME280_humidity;BME280_pressure;Samples;Min_cycle;Max_cycle;Signal;HPM_P1;HPM_P2
2022/12/28 00:00:16;;;;;;;18.00;10.63;;;;;;;3.50;100.00;99739.53;5065552;28;20249;-79
2022/12/28 00:02:45;;;;;;;20.67;11.10;;;;;;;3.47;100.00;99736.97;5059927;28;20309;-79
2022/12/28 00:05:14;;;;;;;23.27;11.40;;;;;;;3.49;100.00;99735.22;5062091;28;20220;-80
2022/12/28 00:07:42;;;;;;;19.97;11.07;;;;;;;3.53;100.00;99732.44;5066580;28;20666;-80
2022/12/28 00:10:12;;;;;;;19.30;10.73;;;;;;;3.54;100.00;99728.06;5063516;28;20192;-80
2022/12/28 00:12:41;;;;;;;17.27;11.03;;;;;;;3.55;100.00;99729.78;5065123;28;20204;-80
2022/12/28 00:15:10;;;;;;;22.50;11.83;;;;;;;3.63;100.00;99733.06;5063219;28;20204;-80
2022/12/28 00:17:38;;;;;;;19.67;11.23;;;;;;;3.55;100.00;99728.03;5069187;28;20192;-79
2022/12/28 00:20:07;;;;;;;17.40;10.90;;;;;;;3.46;100.00;99717.78;5069408;28;20193;-80
2022/12/28 00:22:36;;;;;;;24.30;12.03;;;;;;;3.48;100.00;99710.78;5069764;28;20262;-79
2022/12/28 00:25:06;;;;;;;21.10;11.20;;;;;;;3.44;100.00;99709.13;5065777;28;20199;-79
2022/12/28 00:27:36;;;;;;;18.73;11.37;;;;;;;3.64;100.00;99698.97;5065697;28;20227;-79
2022/12/28 00:30:05;;;;;;;17.20;10.33;;;;;;;3.45;100.00;99692.50;5069830;28;20232;-79
2022/12/28 00:32:34;;;;;;;15.60;10.57;;;;;;;3.48;100.00;99696.81;5061210;28;20208;-79
2022/12/28 00:35:02;;;;;;;17.80;10.13;;;;;;;3.53;100.00;99687.06;5069689;28;20193;-80
2022/12/28 00:37:31;;;;;;;17.23;11.00;;;;;;;3.50;100.00;99666.22;5064473;28;20184;-80
2022/12/28 00:40:00;;;;;;;19.30;11.03;;;;;;;3.53;100.00;99666.97;5065102;28;20215;-80
2022/12/28 00:42:28;;;;;;;21.37;11.10;;;;;;;3.52;100.00;99662.66;5062717;28;20201;-80
2022/12/28 00:44:58;;;;;;;14.40;10.23;;;;;;;3.42;100.00;99661.19;5061826;28;20232;-80
2022/12/28 00:47:26;;;;;;;19.87;11.20;;;;;;;3.54;100.00;99652.13;5065143;28;20218;-80
2022/12/28 00:49:55;;;;;;;17.80;10.87;;;;;;;3.60;100.00;99637.13;5066999;28;20215;-79
2022/12/28 00:52:23;;;;;;;17.33;10.90;;;;;;;3.52;100.00;99626.00;5060847;28;20185;-80
2022/12/28 00:54:52;;;;;;;18.97;11.47;;;;;;;3.51;100.00;99631.28;5024118;28;20665;-79
2022/12/28 00:57:21;;;;;;;15.13;10.67;;;;;;;3.53;100.00;99627.69;5006311;28;20194;-80
2022/12/28 00:59:50;;;;;;;17.77;12.07;;;;;;;3.58;100.00;99619.72;5024143;28;20244;-79
2022/12/28 01:02:20;;;;;;;17.87;11.73;;;;;;;3.69;100.00;99621.13;5029132;28;20193;-79
2022/12/28 01:04:48;;;;;;;18.70;12.27;;;;;;;3.62;100.00;99621.34;5031923;28;20254;-80
2022/12/28 01:07:17;;;;;;;22.60;10.97;;;;;;;3.64;100.00;99609.91;5024333;28;20276;-80
2022/12/28 01:09:45;;;;;;;19.20;11.53;;;;;;;3.66;100.00;99612.50;5029288;28;20205;-80
2022/12/28 01:12:13;;;;;;;19.63;11.73;;;;;;;3.71;100.00;99608.84;5032547;28;20216;-80
2022/12/28 01:14:42;;;;;;;19.97;11.27;;;;;;;3.68;100.00;99603.72;5067003;28;20247;-80
2022/12/28 01:17:10;;;;;;;17.97;11.80;;;;;;;3.68;100.00;99605.47;5063303;28;20196;-80
2022/12/28 01:19:40;;;;;;;23.07;11.80;;;;;;;3.74;100.00;99602.66;5061373;28;20199;-80
2022/12/28 01:22:09;;;;;;;20.53;12.00;;;;;;;3.72;100.00;99594.84;5064067;28;20253;-80
2022/12/28 01:24:37;;;;;;;19.27;12.00;;;;;;;3.68;100.00;99585.38;5061579;28;20234;-80
2022/12/28 01:27:06;;;;;;;20.23;11.60;;;;;;;3.58;100.00;99583.06;5065139;28;20289;-80
2022/12/28 01:29:34;;;;;;;19.20;10.60;;;;;;;3.50;100.00;99570.19;5061519;28;20790;-80
2022/12/28 01:32:02;;;;;;;17.07;10.10;;;;;;;3.51;100.00;99576.28;5064672;28;20257;-80
2022/12/28 01:34:31;;;;;;;15.97;10.83;;;;;;;3.43;100.00;99577.34;5072422;28;20284;-79
2022/12/28 01:37:00;;;;;;;20.37;10.33;;;;;;;3.51;100.00;99565.81;4969821;28;20223;-79
2022/12/28 01:39:30;;;;;;;17.83;11.23;;;;;;;3.47;100.00;99558.91;4970205;28;20192;-80
2022/12/28 01:42:00;;;;;;;18.00;11.23;;;;;;;3.42;100.00;99559.06;4971970;28;20208;-80
2022/12/28 01:44:47;;;;;;;14.87;10.20;;;;;;;3.43;100.00;99566.03;4969958;28;20254;-80
2022/12/28 01:47:19;;;;;;;20.60;10.63;;;;;;;3.50;100.00;99561.47;4972114;28;20266;-79
2022/12/28 01:49:56;;;;;;;22.63;11.67;;;;;;;3.42;100.00;99557.31;4967449;28;20251;-80
2022/12/28 01:52:33;;;;;;;18.73;10.87;;;;;;;3.36;100.00;99548.75;4971420;28;20195;-79
2022/12/28 01:55:08;;;;;;;17.33;11.40;;;;;;;3.33;100.00;99552.34;5012395;28;20199;-80
2022/12/28 01:57:42;;;;;;;20.57;10.97;;;;;;;3.38;100.00;99537.38;5065475;28;20203;-79
2022/12/28 02:00:14;;;;;;;16.43;11.10;;;;;;;3.42;100.00;99548.59;5073127;28;20199;-80
2022/12/28 02:02:46;;;;;;;19.40;10.83;;;;;;;3.39;100.00;99546.06;5066334;28;20270;-79
2022/12/28 02:05:16;;;;;;;15.87;10.40;;;;;;;3.41;100.00;99545.13;5070117;28;20211;-80
2022/12/28 02:07:52;;;;;;;16.90;11.10;;;;;;;3.26;100.00;99542.94;5066408;28;20223;-80
2022/12/28 02:10:22;;;;;;;18.50;10.47;;;;;;;3.34;100.00;99540.09;5063439;28;20196;-79
2022/12/28 02:13:11;;;;;;;21.47;11.33;;;;;;;3.42;100.00;99535.50;5075586;28;20211;-80
2022/12/28 02:15:42;;;;;;;19.70;11.00;;;;;;;3.42;100.00;99536.38;5064223;28;20189;-80
2022/12/28 02:18:13;;;;;;;17.87;11.23;;;;;;;3.40;100.00;99547.78;5067836;28;20200;-80
2022/12/28 02:20:58;;;;;;;16.53;10.73;;;;;;;3.47;100.00;99556.31;5067997;28;20250;-80
2022/12/28 02:24:17;;;;;;;16.57;10.87;;;;;;;3.48;100.00;99545.81;5066694;28;20200;-80
2022/12/28 02:26:53;;;;;;;17.53;10.60;;;;;;;3.48;100.00;99539.72;5074989;28;20266;-80
2022/12/28 02:29:48;;;;;;;18.03;11.13;;;;;;;3.59;100.00;99535.88;5018053;28;20184;-80
2022/12/28 02:32:33;;;;;;;21.50;12.37;;;;;;;3.67;100.00;99523.41;5065166;28;20709;-80
2022/12/28 02:35:08;;;;;;;18.77;11.93;;;;;;;3.68;100.00;99504.16;5072081;28;20200;-80
2022/12/28 02:37:42;;;;;;;19.43;12.80;;;;;;;3.68;100.00;99501.56;5068570;28;20238;-80
2022/12/28 02:40:17;;;;;;;21.00;13.73;;;;;;;3.69;100.00;99492.78;5064974;28;20204;-79
2022/12/28 02:42:46;;;;;;;20.37;12.90;;;;;;;3.66;100.00;99492.00;5064672;28;20196;-79
2022/12/28 02:51:31;;;;;;;19.47;14.07;;;;;;;3.79;100.00;99506.47;5074843;28;20193;-79
2022/12/28 02:57:42;;;;;;;21.67;14.33;;;;;;;3.78;100.00;99491.66;5074249;28;20647;-79
2022/12/28 03:00:15;;;;;;;19.57;13.63;;;;;;;3.82;100.00;99489.78;5071735;28;20192;-79
2022/12/28 03:03:00;;;;;;;22.63;14.57;;;;;;;3.83;100.00;99500.22;5066563;28;20238;-80
2022/12/28 03:08:30;;;;;;;23.77;14.67;;;;;;;3.82;100.00;99490.63;5074229;28;20216;-79
2022/12/28 03:11:08;;;;;;;23.60;15.07;;;;;;;3.93;100.00;99491.16;5068022;28;20196;-80
2022/12/28 03:13:43;;;;;;;20.37;14.23;;;;;;;4.05;100.00;99487.28;5062955;28;20208;-80
2022/12/28 03:16:19;;;;;;;23.27;14.73;;;;;;;3.92;100.00;99473.72;5069186;28;20200;-79
2022/12/28 03:32:55;;;;;;;18.20;13.27;;;;;;;4.09;100.00;99457.47;5046512;28;20286;-80
2022/12/28 03:35:32;;;;;;;21.57;14.50;;;;;;;4.07;100.00;99446.19;5044848;28;20197;-80
2022/12/28 03:38:02;;;;;;;20.37;13.50;;;;;;;4.21;100.00;99450.94;5061749;28;20204;-80
2022/12/28 03:40:37;;;;;;;22.80;13.67;;;;;;;4.12;100.00;99441.63;5062663;28;20669;-80
2022/12/28 03:46:04;;;;;;;20.57;13.90;;;;;;;4.09;100.00;99431.25;5073309;28;20192;-80
2022/12/28 03:48:36;;;;;;;22.77;14.40;;;;;;;4.08;100.00;99439.16;5067121;28;20259;-80
2022/12/28 03:51:08;;;;;;;19.57;13.33;;;;;;;4.16;100.00;99426.66;5068258;28;20197;-79
2022/12/28 03:53:39;;;;;;;20.63;13.43;;;;;;;4.12;100.00;99423.28;5070460;28;20203;-80
2022/12/28 03:56:10;;;;;;;18.90;12.80;;;;;;;4.17;100.00;99418.75;5068581;28;20203;-80
2022/12/28 03:58:39;;;;;;;18.40;13.57;;;;;;;4.12;100.00;99407.53;5067777;28;20242;-80
2022/12/28 04:01:08;;;;;;;21.63;13.33;;;;;;;4.18;100.00;99404.72;5069607;28;20224;-80
2022/12/28 04:03:37;;;;;;;21.27;13.00;;;;;;;4.19;100.00;99395.09;5061939;28;20275;-79
2022/12/28 04:06:08;;;;;;;21.23;14.47;;;;;;;4.19;100.00;99393.34;5060555;28;20257;-79
2022/12/28 04:08:36;;;;;;;21.57;14.10;;;;;;;4.14;100.00;99400.47;5068366;28;20216;-80
2022/12/28 04:11:05;;;;;;;19.67;13.43;;;;;;;4.19;100.00;99405.59;5062530;28;20196;-79
2022/12/28 04:13:34;;;;;;;18.10;13.03;;;;;;;4.27;100.00;99393.06;5070268;28;20192;-80
2022/12/28 04:16:08;;;;;;;20.43;14.67;;;;;;;4.26;100.00;99393.97;5063754;28;20196;-79
2022/12/28 04:18:40;;;;;;;18.67;13.87;;;;;;;4.27;100.00;99396.53;5064428;28;20219;-80
2022/12/28 04:21:11;;;;;;;23.50;14.93;;;;;;;4.35;100.00;99385.81;5065844;28;20204;-79
2022/12/28 04:23:39;;;;;;;22.27;15.43;;;;;;;4.12;100.00;99375.25;5070330;28;20192;-79
2022/12/28 04:26:10;;;;;;;25.90;15.03;;;;;;;4.29;100.00;99367.66;5071351;28;20595;-80
2022/12/28 04:28:40;;;;;;;24.13;15.80;;;;;;;4.30;100.00;99372.84;5069552;28;20687;-80
2022/12/28 04:31:12;;;;;;;22.50;15.77;;;;;;;4.28;100.00;99373.81;5066102;28;20220;-80
2022/12/28 04:33:41;;;;;;;21.67;15.40;;;;;;;4.31;100.00;99369.31;5064267;28;20204;-80
2022/12/28 04:36:14;;;;;;;24.67;16.70;;;;;;;4.23;100.00;99362.59;5067079;28;20204;-80
2022/12/28 04:38:43;;;;;;;21.67;15.60;;;;;;;4.32;100.00;99357.03;5066765;28;20192;-80
2022/12/28 04:41:14;;;;;;;23.23;16.43;;;;;;;4.22;100.00;99356.50;5064723;28;20204;-80
2022/12/28 04:43:43;;;;;;;28.70;16.93;;;;;;;4.15;100.00;99347.19;5068769;28;20246;-80
2022/12/28 04:46:15;;;;;;;25.67;16.50;;;;;;;4.25;100.00;99348.56;4968946;28;20225;-79
2022/12/28 04:48:44;;;;;;;24.67;16.67;;;;;;;4.27;100.00;99356.38;4965377;28;20306;-80
2022/12/28 04:51:18;;;;;;;24.90;16.27;;;;;;;4.26;100.00;99358.13;4964414;28;20207;-79
2022/12/28 04:53:46;;;;;;;23.23;15.93;;;;;;;4.32;100.00;99362.28;4972308;28;20210;-80
2022/12/28 04:56:16;;;;;;;23.37;16.30;;;;;;;4.28;100.00;99355.47;4964142;28;20203;-80
2022/12/28 04:58:45;;;;;;;24.23;16.03;;;;;;;4.31;100.00;99358.81;4964923;28;20206;-79
2022/12/28 05:01:18;;;;;;;25.40;16.20;;;;;;;4.25;100.00;99348.56;4968564;28;20195;-79
2022/12/28 05:03:48;;;;;;;23.37;15.47;;;;;;;4.24;100.00;99345.97;4969315;28;20203;-79
2022/12/28 05:06:26;;;;;;;24.23;15.77;;;;;;;4.31;100.00;99331.75;4967699;28;20229;-80
2022/12/28 05:08:55;;;;;;;26.60;16.50;;;;;;;4.41;100.00;99338.38;4969332;28;20226;-80
2022/12/28 05:11:27;;;;;;;23.50;16.20;;;;;;;4.27;100.00;99338.03;5035648;28;20643;-79
2022/12/28 05:13:57;;;;;;;23.17;15.13;;;;;;;4.45;100.00;99345.22;5073500;28;20188;-80
2022/12/28 05:16:27;;;;;;;24.33;15.20;;;;;;;4.53;100.00;99332.66;5066872;28;20211;-80
2022/12/28 05:18:57;;;;;;;21.77;14.13;;;;;;;4.48;100.00;99336.38;5070149;28;20214;-80
2022/12/28 05:21:28;;;;;;;24.07;15.63;;;;;;;4.56;100.00;99343.06;5069920;28;20200;-80
2022/12/28 05:23:57;;;;;;;24.77;14.47;;;;;;;4.54;100.00;99338.78;5065705;28;20245;-80
2022/12/28 05:26:28;;;;;;;23.00;15.17;;;;;;;4.52;100.00;99322.22;5069584;28;20231;-79
2022/12/28 05:28:57;;;;;;;20.43;14.33;;;;;;;4.58;100.00;99320.25;5068599;28;20227;-79
2022/12/28 05:31:26;;;;;;;23.30;14.80;;;;;;;4.58;100.00;99327.25;5069332;28;20250;-81
2022/12/28 05:33:56;;;;;;;20.77;14.27;;;;;;;4.55;100.00;99322.16;5073494;28;20192;-80
2022/12/28 05:36:28;;;;;;;21.70;14.13;;;;;;;4.62;100.00;99320.13;5066504;28;20203;-80
2022/12/28 05:38:57;;;;;;;20.67;14.67;;;;;;;4.64;100.00;99321.81;5071863;28;20261;-80
2022/12/28 05:41:27;;;;;;;20.37;13.60;;;;;;;4.63;100.00;99309.56;5069501;28;20200;-80
2022/12/28 05:43:55;;;;;;;19.10;14.20;;;;;;;4.63;100.00;99311.34;5064825;28;20220;-80
2022/12/28 05:46:27;;;;;;;20.03;13.17;;;;;;;4.59;100.00;99297.50;5064532;28;20204;-80
2022/12/28 05:48:57;;;;;;;20.20;14.13;;;;;;;4.67;100.00;99284.09;5071518;28;20265;-79
2022/12/28 05:51:29;;;;;;;18.20;13.53;;;;;;;4.52;100.00;99283.75;5075953;28;20224;-80
2022/12/28 05:54:04;;;;;;;21.60;14.57;;;;;;;4.50;100.00;99284.72;5070556;28;20215;-82
2022/12/28 05:56:33;;;;;;;18.23;13.60;;;;;;;4.57;100.00;99287.06;5066316;28;20261;-80
2022/12/28 05:59:04;;;;;;;23.03;14.10;;;;;;;4.65;100.00;99276.28;5067532;28;20204;-79
2022/12/28 06:01:35;;;;;;;18.97;14.20;;;;;;;4.55;100.00;99273.16;5068623;28;20204;-79
2022/12/28 06:04:06;;;;;;;19.73;14.20;;;;;;;4.58;100.00;99270.41;5054682;28;20200;-80
2022/12/28 06:06:36;;;;;;;20.20;13.90;;;;;;;4.49;100.00;99278.63;5019661;28;20242;-80
2022/12/28 06:09:05;;;;;;;22.67;14.13;;;;;;;4.33;100.00;99264.38;5071292;28;20217;-80
2022/12/28 06:11:33;;;;;;;22.33;13.73;;;;;;;4.37;100.00;99254.63;5065028;28;20200;-80
2022/12/28 06:14:04;;;;;;;18.70;14.67;;;;;;;4.32;100.00;99262.66;5067296;28;20204;-80
2022/12/28 06:16:34;;;;;;;20.97;14.10;;;;;;;4.36;100.00;99247.69;5068600;28;20196;-80
2022/12/28 06:19:07;;;;;;;20.47;14.70;;;;;;;4.32;100.00;99247.78;5070991;28;20196;-80
2022/12/28 06:21:39;;;;;;;22.03;15.63;;;;;;;4.27;100.00;99251.50;5065382;28;20234;-80
2022/12/28 06:24:09;;;;;;;22.17;15.53;;;;;;;4.25;100.00;99246.31;5068040;28;20192;-80
2022/12/28 06:26:39;;;;;;;23.50;15.10;;;;;;;4.25;100.00;99241.06;5075135;28;20197;-80
2022/12/28 06:29:08;;;;;;;24.73;15.70;;;;;;;4.29;100.00;99244.44;5071831;28;20220;-80
2022/12/28 06:31:38;;;;;;;25.03;16.13;;;;;;;4.32;100.00;99244.31;5033693;28;20229;-80
2022/12/28 06:34:08;;;;;;;23.20;15.80;;;;;;;4.34;100.00;99246.88;5052437;28;20228;-80
2022/12/28 06:36:40;;;;;;;20.60;15.83;;;;;;;4.29;100.00;99240.03;5054610;28;20197;-80
2022/12/28 06:39:11;;;;;;;24.83;16.13;;;;;;;4.26;100.00;99239.31;5048166;28;20201;-80
2022/12/28 06:41:39;;;;;;;25.37;16.20;;;;;;;4.33;100.00;99238.16;5050958;28;20227;-79
2022/12/28 06:44:09;;;;;;;22.20;16.07;;;;;;;4.28;100.00;99240.97;5050411;28;20258;-80
2022/12/28 06:46:37;;;;;;;24.83;16.33;;;;;;;4.34;100.00;99246.88;5050032;28;20197;-80
2022/12/28 06:49:07;;;;;;;20.80;15.87;;;;;;;4.34;100.00;99247.72;5054536;28;20221;-80
2022/12/28 06:51:40;;;;;;;22.83;16.27;;;;;;;4.25;100.00;99227.13;5025998;28;20189;-79
2022/12/28 06:54:10;;;;;;;24.47;16.87;;;;;;;4.42;100.00;99222.06;5023188;28;20303;-80
2022/12/28 06:56:39;;;;;;;21.30;16.40;;;;;;;4.36;100.00;99227.56;5024612;28;20198;-80
2022/12/28 06:59:08;;;;;;;24.63;16.27;;;;;;;4.44;100.00;99236.00;5028861;28;20206;-80
2022/12/28 07:01:38;;;;;;;23.63;16.40;;;;;;;4.51;100.00;99219.09;5026328;28;20202;-80
2022/12/28 07:04:08;;;;;;;24.73;16.63;;;;;;;4.47;100.00;99228.00;5028539;28;20193;-79
2022/12/28 07:06:41;;;;;;;23.03;16.87;;;;;;;4.50;100.00;99213.91;5026962;28;20312;-80
2022/12/28 07:09:12;;;;;;;25.97;17.60;;;;;;;4.46;100.00;99215.81;5027028;28;20225;-80
2022/12/28 07:11:41;;;;;;;23.20;17.53;;;;;;;4.48;100.00;99219.22;5053981;28;20200;-80
2022/12/28 07:14:10;;;;;;;29.10;17.80;;;;;;;4.46;100.00;99217.59;4992559;28;20311;-80
2022/12/28 07:16:40;;;;;;;25.20;17.90;;;;;;;4.48;100.00;99221.84;4986850;28;20207;-80
2022/12/28 07:19:07;;;;;;;22.37;17.70;;;;;;;4.51;100.00;99226.97;4988903;28;20191;-80
2022/12/28 07:21:38;;;;;;;27.40;17.47;;;;;;;4.53;100.00;99214.63;4989082;28;20196;-80
2022/12/28 07:24:08;;;;;;;22.77;16.17;;;;;;;4.55;100.00;99225.09;4989097;28;20211;-80
2022/12/28 07:26:37;;;;;;;25.77;16.13;;;;;;;4.59;100.00;99221.44;4992372;28;20201;-80
2022/12/28 07:29:07;;;;;;;22.53;16.67;;;;;;;4.56;100.00;99221.56;4989071;28;20230;-80
2022/12/28 07:31:39;;;;;;;22.90;16.97;;;;;;;4.55;100.00;99231.19;4986167;28;20725;-80
2022/12/28 07:34:13;;;;;;;22.50;15.20;;;;;;;4.57;100.00;99218.88;4986816;28;20203;-80
2022/12/28 07:36:43;;;;;;;23.97;16.00;;;;;;;4.67;100.00;99222.00;4989996;28;20658;-80
2022/12/28 07:39:13;;;;;;;19.07;15.33;;;;;;;4.67;100.00;99222.00;5021138;28;20781;-80
2022/12/28 07:41:42;;;;;;;22.87;16.00;;;;;;;4.75;100.00;99216.44;5047587;28;20228;-80
2022/12/28 07:44:15;;;;;;;24.97;15.70;;;;;;;4.74;100.00;99220.00;5047723;28;20668;-80
2022/12/28 07:46:44;;;;;;;23.47;15.53;;;;;;;4.75;100.00;99212.06;5045087;28;20205;-81
2022/12/28 07:49:13;;;;;;;20.47;15.10;;;;;;;4.75;100.00;99214.69;5052825;28;20217;-81
2022/12/28 07:51:42;;;;;;;21.43;14.43;;;;;;;4.80;100.00;99202.22;5053458;28;20189;-79
2022/12/28 07:54:11;;;;;;;17.43;14.00;;;;;;;4.84;100.00;99203.81;5046059;28;20263;-80
2022/12/28 07:56:39;;;;;;;16.80;13.70;;;;;;;4.88;100.00;99201.91;4986871;28;20195;-80
2022/12/28 07:59:07;;;;;;;21.63;14.77;;;;;;;4.91;100.00;99211.44;4987342;28;20222;-79
2022/12/28 08:01:36;;;;;;;18.10;14.63;;;;;;;4.93;100.00;99210.47;4988172;28;20191;-80
2022/12/28 08:04:07;;;;;;;19.17;14.20;;;;;;;4.88;100.00;99210.66;4988197;28;20282;-80
2022/12/28 08:06:38;;;;;;;19.10;13.50;;;;;;;4.97;100.00;99209.41;4988996;28;20771;-80
2022/12/28 08:09:09;;;;;;;18.77;12.53;;;;;;;5.01;100.00;99207.50;4990287;28;20248;-79
2022/12/28 08:11:41;;;;;;;18.93;12.80;;;;;;;5.04;100.00;99199.53;4988859;28;20206;-80
2022/12/28 08:14:10;;;;;;;15.80;12.73;;;;;;;4.99;100.00;99201.47;5000755;28;20229;-80
2022/12/28 08:16:40;;;;;;;16.23;12.13;;;;;;;5.11;100.00;99196.56;5044992;28;20208;-80
2022/12/28 08:19:10;;;;;;;15.90;11.80;;;;;;;5.06;100.00;99193.31;5046151;28;20201;-80
2022/12/28 08:21:41;;;;;;;17.17;12.63;;;;;;;5.09;100.00;99185.28;5048177;28;20227;-80
2022/12/28 08:24:14;;;;;;;17.87;11.97;;;;;;;5.09;100.00;99189.69;5029340;28;20194;-80
2022/12/28 08:26:43;;;;;;;13.70;11.40;;;;;;;5.03;100.00;99187.34;5025548;28;20196;-80
2022/12/28 08:29:14;;;;;;;13.73;10.80;;;;;;;5.14;100.00;99195.63;5025046;28;20201;-80
2022/12/28 08:31:44;;;;;;;15.57;11.43;;;;;;;5.11;100.00;99198.34;5020768;28;20284;-80
2022/12/28 08:34:18;;;;;;;15.63;10.97;;;;;;;5.21;100.00;99190.94;5028318;28;20232;-80
2022/12/28 08:36:47;;;;;;;14.63;10.70;;;;;;;5.21;100.00;99188.31;5025257;28;20208;-80
2022/12/28 08:39:18;;;;;;;15.63;10.53;;;;;;;5.28;100.00;99185.38;5021874;28;20281;-80
2022/12/28 08:41:47;;;;;;;13.17;10.17;;;;;;;5.34;100.00;99184.28;5023349;28;20251;-79
2022/12/28 08:44:15;;;;;;;13.70;10.23;;;;;;;5.50;100.00;99190.59;5045462;28;20193;-81
2022/12/28 08:46:44;;;;;;;14.47;9.63;;;;;;;5.53;100.00;99176.47;5047856;28;20199;-80
2022/12/28 08:49:12;;;;;;;13.83;10.03;;;;;;;5.63;100.00;99186.50;5045424;28;20217;-79
2022/12/28 08:51:41;;;;;;;12.33;9.47;;;;;;;5.55;100.00;99183.34;4987861;28;20273;-80
2022/12/28 08:54:12;;;;;;;12.77;9.03;;;;;;;5.75;100.00;99191.22;4986242;28;20253;-80
2022/12/28 08:56:45;;;;;;;12.77;9.70;;;;;;;5.71;100.00;99179.16;4988650;28;20285;-80
2022/12/28 08:59:17;;;;;;;11.37;9.07;;;;;;;5.82;100.00;99178.69;4981582;28;20206;-80
2022/12/28 09:01:46;;;;;;;12.47;8.17;;;;;;;5.75;100.00;99172.81;4987389;28;20194;-80
2022/12/28 09:04:17;;;;;;;12.10;8.80;;;;;;;5.77;100.00;99178.00;4951429;29;20200;-80
2022/12/28 09:06:45;;;;;;;13.07;9.03;;;;;;;5.63;100.00;99178.63;4947872;29;20664;-80
2022/12/28 09:09:16;;;;;;;10.67;8.50;;;;;;;5.74;100.00;99178.16;4961641;28;20205;-80
2022/12/28 09:11:47;;;;;;;14.23;9.00;;;;;;;5.75;100.00;99180.72;4997681;28;20225;-80
2022/12/28 09:14:16;;;;;;;10.83;8.60;;;;;;;5.76;100.00;99186.81;5008125;28;20213;-80
2022/12/28 09:16:51;;;;;;;12.63;8.00;;;;;;;5.80;100.00;99190.19;5007518;28;20281;-80
2022/12/28 09:19:21;;;;;;;9.33;7.30;;;;;;;5.74;100.00;99189.53;5003153;28;20249;-80
2022/12/28 09:21:51;;;;;;;12.70;7.83;;;;;;;5.78;100.00;99182.34;4946846;28;20211;-80
2022/12/28 09:24:20;;;;;;;13.57;7.50;;;;;;;5.92;100.00;99181.78;4984773;28;20247;-80
2022/12/28 09:26:54;;;;;;;8.53;7.00;;;;;;;5.92;100.00;99195.78;4986686;28;20218;-80
2022/12/28 09:29:22;;;;;;;9.13;7.00;;;;;;;5.93;100.00;99196.63;4985950;28;20222;-80
2022/12/28 09:31:50;;;;;;;11.63;7.33;;;;;;;6.02;100.00;99190.97;4985552;28;20230;-80
2022/12/28 09:34:19;;;;;;;12.80;7.03;;;;;;;6.01;100.00;99190.09;4980977;28;20257;-80
2022/12/28 09:37:04;;;;;;;8.00;6.90;;;;;;;6.17;100.00;99186.75;4989556;28;20592;-80
2022/12/28 09:39:34;;;;;;;8.53;7.10;;;;;;;6.15;100.00;99181.59;5002142;28;20227;-81
2022/12/28 09:42:08;;;;;;;9.70;6.80;;;;;;;6.10;100.00;99186.22;5048368;28;20676;-80
2022/12/28 09:44:54;;;;;;;8.63;6.77;;;;;;;6.27;100.00;99185.41;5048565;28;20195;-80
2022/12/28 09:47:34;;;;;;;7.50;6.30;;;;;;;6.26;100.00;99188.97;5049994;28;20216;-80
2022/12/28 09:50:31;;;;;;;10.10;6.67;;;;;;;6.34;100.00;99186.84;5048117;28;20197;-80
2022/12/28 09:53:19;;;;;;;11.70;7.00;;;;;;;6.35;100.00;99185.06;5053410;28;20204;-80
2022/12/28 09:55:57;;;;;;;8.57;6.63;;;;;;;6.47;100.00;99187.16;5051667;28;20197;-81
2022/12/28 09:58:29;;;;;;;10.53;6.30;;;;;;;6.50;100.00;99176.47;5054355;28;20185;-80
2022/12/28 10:01:02;;;;;;;8.83;6.93;;;;;;;6.57;100.00;99175.28;5052547;28;20663;-80
2022/12/28 10:03:36;;;;;;;11.07;6.57;;;;;;;6.66;100.00;99185.38;5054525;28;20188;-81
2022/12/28 10:06:11;;;;;;;7.20;6.20;;;;;;;6.58;100.00;99172.56;5050167;28;20247;-80
2022/12/28 10:08:44;;;;;;;8.20;6.00;;;;;;;6.68;100.00;99167.72;5052091;28;20196;-80
2022/12/28 10:11:19;;;;;;;12.57;6.73;;;;;;;6.58;100.00;99171.72;5053145;28;20266;-80
2022/12/28 10:13:54;;;;;;;9.03;5.73;;;;;;;6.67;100.00;99157.25;5048851;28;20197;-80
2022/12/28 10:16:26;;;;;;;9.60;5.83;;;;;;;6.63;100.00;99151.28;5052710;28;20201;-80
2022/12/28 10:18:55;;;;;;;9.33;5.90;;;;;;;6.68;100.00;99157.19;5051006;28;20205;-80
2022/12/28 10:21:27;;;;;;;9.60;6.07;;;;;;;6.74;100.00;99159.50;5030472;28;20216;-80
2022/12/28 10:24:02;;;;;;;9.70;5.13;;;;;;;6.78;100.00;99147.91;5028457;28;20338;-80
2022/12/28 10:26:51;;;;;;;8.57;5.53;;;;;;;6.79;100.00;99146.13;5033095;28;20759;-80
2022/12/28 10:29:23;;;;;;;7.30;5.60;;;;;;;6.79;100.00;99148.75;5027880;28;20193;-80
2022/12/28 10:32:07;;;;;;;10.00;5.87;;;;;;;6.79;100.00;99136.47;5023792;28;20221;-80
2022/12/28 10:34:37;;;;;;;7.03;5.60;;;;;;;6.79;100.00;99141.72;5028340;28;20204;-80
2022/12/28 10:37:13;;;;;;;7.73;5.17;;;;;;;6.91;100.00;99142.03;5028158;28;20202;-80
2022/12/28 10:39:50;;;;;;;7.17;5.17;;;;;;;6.86;100.00;99135.22;5043779;28;20197;-81
2022/12/28 10:42:25;;;;;;;7.87;5.37;;;;;;;6.78;100.00;99126.84;5048513;28;20197;-80
2022/12/28 10:45:06;;;;;;;11.97;6.17;;;;;;;6.89;100.00;99134.22;5053682;28;20252;-80
2022/12/28 10:47:37;;;;;;;9.43;5.50;;;;;;;6.92;100.00;99125.31;5049975;28;20192;-80
2022/12/28 10:50:06;;;;;;;6.87;5.10;;;;;;;6.89;100.00;99119.28;5047796;28;20218;-80
2022/12/28 10:52:58;;;;;;;12.43;7.30;;;;;;;6.84;100.00;99110.75;5055579;28;20312;-80
2022/12/28 10:55:29;;;;;;;8.67;5.73;;;;;;;6.97;100.00;99105.75;5045343;28;20190;-80
2022/12/28 10:58:15;;;;;;;6.43;5.20;;;;;;;6.99;100.00;99100.38;5014979;28;20208;-80
2022/12/28 11:01:06;;;;;;;6.83;4.93;;;;;;;7.10;100.00;99101.53;5053928;28;20200;-80
2022/12/28 11:03:37;;;;;;;5.50;4.47;;;;;;;7.06;100.00;99092.09;5052576;28;20211;-80
2022/12/28 11:06:13;;;;;;;7.93;5.27;;;;;;;7.09;100.00;99088.47;5050006;28;20201;-80
2022/12/28 11:08:43;;;;;;;6.57;4.50;;;;;;;7.10;100.00;99088.38;5050454;28;20197;-79
2022/12/28 11:11:20;;;;;;;8.10;4.87;;;;;;;7.17;100.00;99083.66;5053816;28;20240;-80
2022/12/28 11:13:54;;;;;;;11.47;5.33;;;;;;;7.13;100.00;99074.19;5044462;28;20185;-80
2022/12/28 11:16:24;;;;;;;8.10;4.40;;;;;;;7.11;100.00;99078.69;5052488;28;20272;-80
2022/12/28 11:18:53;;;;;;;6.43;4.60;;;;;;;7.21;100.00;99073.81;5050303;28;20203;-80
2022/12/28 11:21:23;;;;;;;6.00;4.70;;;;;;;7.34;100.00;99067.84;5049051;28;20346;-80
2022/12/28 11:23:53;;;;;;;9.33;5.10;;;;;;;7.31;100.00;99061.84;5049965;28;20227;-80
2022/12/28 11:26:23;;;;;;;8.13;4.70;;;;;;;7.31;100.00;99060.06;5051374;28;20197;-80
2022/12/28 11:28:52;;;;;;;8.33;4.60;;;;;;;7.32;100.00;99067.03;5051809;28;20207;-80
2022/12/28 11:31:29;;;;;;;6.73;4.77;;;;;;;7.34;100.00;99052.03;5057418;28;20235;-80
2022/12/28 11:34:03;;;;;;;7.30;4.60;;;;;;;7.43;100.00;99048.03;5070698;28;20226;-80
2022/12/28 11:36:39;;;;;;;7.70;4.63;;;;;;;7.47;100.00;99050.44;5067830;28;20200;-80
2022/12/28 11:39:31;;;;;;;7.97;4.93;;;;;;;7.57;100.00;99036.78;5067773;28;20227;-80
2022/12/28 11:42:01;;;;;;;10.67;5.63;;;;;;;7.56;100.00;99037.72;5067661;28;20258;-80
2022/12/28 11:44:53;;;;;;;11.83;7.63;;;;;;;7.69;100.00;99036.09;5073771;28;20197;-80
2022/12/28 11:47:31;;;;;;;10.47;5.50;;;;;;;7.70;100.00;99024.63;5068156;28;20246;-80
2022/12/28 11:50:41;;;;;;;16.03;10.80;;;;;;;7.83;100.00;99020.41;5067884;28;20204;-80
2022/12/28 11:53:43;;;;;;;7.27;4.27;;;;;;;7.82;100.00;99016.06;4978469;28;20312;-80
2022/12/28 11:56:13;;;;;;;13.10;8.00;;;;;;;8.03;100.00;99014.88;5010707;28;20198;-79
2022/12/28 11:59:00;;;;;;;6.03;4.40;;;;;;;8.03;100.00;98996.41;5004204;28;20317;-79
2022/12/28 12:01:43;;;;;;;5.20;3.83;;;;;;;8.09;100.00;98996.97;5011388;28;20194;-80
2022/12/28 12:04:37;;;;;;;7.33;4.40;;;;;;;8.20;100.00;98987.53;5006297;28;20646;-80
2022/12/28 12:07:16;;;;;;;5.90;3.60;;;;;;;8.24;100.00;98975.88;5008733;28;20619;-80
2022/12/28 12:09:47;;;;;;;8.13;4.30;;;;;;;8.37;100.00;98975.19;5000730;28;20202;-79
2022/12/28 12:12:37;;;;;;;8.60;5.33;;;;;;;8.45;100.00;98967.66;5057181;28;20718;-80
2022/12/28 12:15:19;;;;;;;12.23;6.60;;;;;;;8.44;100.00;98958.91;5066749;28;20201;-79